Time;durP1;ratioP1;P1;durP2;ratioP2;P2;SDS_P1;SDS_P2;PMS_P1;PMS_P2;Temp;Humidity;BMP_temperature;BMP_pressure;BME280_temperature;BME280_humidity;BME280_pressure;Samples;Min_cycle;Max_cycle;Signal;HPM_P1;HPM_P2
2021/09/22 00:02:24;;;;;;;8.80;4.55;;;;;;;;;;5050058;28;20388;-61
2021/09/22 00:04:50;;;;;;;8.93;5.25;;;;;;;;;;5072107;28;20025;-62
2021/09/22 00:07:16;;;;;;;8.43;4.45;;;;;;;;;;5039341;28;20029;-61
2021/09/22 00:09:42;;;;;;;9.00;4.28;;;;;;;;;;5057938;28;20098;-59
2021/09/22 00:12:08;;;;;;;8.23;4.85;;;;;;;;;;5034424;28;20032;-62
2021/09/22 00:14:34;;;;;;;10.50;4.43;;;;;;;;;;5061794;28;20406;-62
2021/09/22 00:17:00;;;;;;;6.40;4.15;;;;;;;;;;5051387;28;20040;-62
2021/09/22 00:19:26;;;;;;;10.88;4.28;;;;;;;;;;5040926;28;20045;-62
2021/09/22 00:21:52;;;;;;;9.50;4.90;;;;;;;;;;5062779;28;20130;-61
2021/09/22 00:24:18;;;;;;;9.82;4.47;;;;;;;;;;5071989;28;20055;-61
2021/09/22 00:26:45;;;;;;;8.68;4.22;;;;;;;;;;5046835;28;20049;-61
2021/09/22 00:29:11;;;;;;;9.65;4.30;;;;;;;;;;5046869;28;20397;-60
2021/09/22 00:31:37;;;;;;;15.00;5.07;;;;;;;;;;5054172;28;20028;-61
2021/09/22 00:34:06;;;;;;;8.10;4.97;;;;;;;;;;5052338;28;20109;-61
2021/09/22 00:36:32;;;;;;;6.82;3.83;;;;;;;;;;5064785;28;20044;-61
2021/09/22 00:38:58;;;;;;;7.63;3.95;;;;;;;;;;5071266;28;20100;-62
2021/09/22 00:41:24;;;;;;;9.10;4.03;;;;;;;;;;5066243;28;20380;-61
2021/09/22 00:43:50;;;;;;;8.35;4.50;;;;;;;;;;5063468;28;20040;-61
2021/09/22 00:46:17;;;;;;;10.75;4.05;;;;;;;;;;5053204;28;20469;-62
2021/09/22 00:48:43;;;;;;;8.95;4.10;;;;;;;;;;5037169;28;20029;-61
2021/09/22 00:51:09;;;;;;;6.40;3.72;;;;;;;;;;5065693;28;20037;-60
2021/09/22 00:53:36;;;;;;;8.70;3.72;;;;;;;;;;5060574;28;20105;-62
2021/09/22 00:56:03;;;;;;;6.55;4.05;;;;;;;;;;5049016;28;20033;-61
2021/09/22 00:58:30;;;;;;;8.98;4.13;;;;;;;;;;5050065;28;20507;-61
2021/09/22 01:00:56;;;;;;;9.32;3.35;;;;;;;;;;5049203;28;20021;-62
2021/09/22 01:03:22;;;;;;;12.30;4.22;;;;;;;;;;5054079;28;20037;-62
2021/09/22 01:05:49;;;;;;;5.30;3.85;;;;;;;;;;5033890;28;20029;-62
2021/09/22 01:08:16;;;;;;;9.48;3.90;;;;;;;;;;5050367;28;20465;-62
2021/09/22 01:10:42;;;;;;;8.82;4.63;;;;;;;;;;5045466;28;20029;-62
2021/09/22 01:13:08;;;;;;;12.68;4.25;;;;;;;;;;5050775;28;20381;-62
2021/09/22 01:15:36;;;;;;;10.32;4.43;;;;;;;;;;5049980;28;20033;-62
2021/09/22 01:18:03;;;;;;;11.45;3.50;;;;;;;;;;5055550;28;20024;-62
2021/09/22 01:20:32;;;;;;;5.95;2.75;;;;;;;;;;5046852;28;20143;-62
2021/09/22 01:22:59;;;;;;;8.60;3.60;;;;;;;;;;5053447;28;20101;-62
2021/09/22 01:25:25;;;;;;;11.20;3.85;;;;;;;;;;5048929;28;20025;-62
2021/09/22 01:27:52;;;;;;;7.93;3.65;;;;;;;;;;5047589;28;20112;-62
2021/09/22 01:30:19;;;;;;;7.40;3.92;;;;;;;;;;5042647;28;20025;-61
2021/09/22 01:32:55;;;;;;;5.72;3.38;;;;;;;;;;5040280;28;20036;-62
2021/09/22 01:35:21;;;;;;;7.72;3.45;;;;;;;;;;5048617;28;20032;-62
2021/09/22 01:37:48;;;;;;;12.15;3.55;;;;;;;;;;5039401;28;20430;-62
2021/09/22 01:40:14;;;;;;;12.85;3.83;;;;;;;;;;5049264;28;20527;-62
2021/09/22 01:42:40;;;;;;;8.50;3.88;;;;;;;;;;5047884;28;20022;-62
2021/09/22 01:45:10;;;;;;;8.18;3.65;;;;;;;;;;5048656;28;20036;-62
2021/09/22 01:47:36;;;;;;;11.10;4.47;;;;;;;;;;5048510;28;20021;-62
2021/09/22 01:50:07;;;;;;;8.52;3.90;;;;;;;;;;5061586;28;20487;-62
2021/09/22 01:52:33;;;;;;;8.60;3.40;;;;;;;;;;5059974;28;20487;-62
2021/09/22 01:54:59;;;;;;;12.70;4.00;;;;;;;;;;5053204;28;20028;-62
2021/09/22 01:57:25;;;;;;;11.57;2.90;;;;;;;;;;5057915;28;20384;-62
2021/09/22 01:59:51;;;;;;;7.93;2.85;;;;;;;;;;5044974;28;20033;-62
2021/09/22 02:02:17;;;;;;;8.43;2.58;;;;;;;;;;5057875;28;20059;-62
2021/09/22 02:04:43;;;;;;;7.60;2.40;;;;;;;;;;5041758;28;20427;-62
2021/09/22 02:07:09;;;;;;;9.63;2.97;;;;;;;;;;5068315;28;20031;-61
2021/09/22 02:09:35;;;;;;;9.18;2.45;;;;;;;;;;5059454;28;20037;-61
2021/09/22 02:12:01;;;;;;;8.50;2.65;;;;;;;;;;5056552;28;20103;-62
2021/09/22 02:14:27;;;;;;;3.88;2.03;;;;;;;;;;5057825;28;20037;-62
2021/09/22 02:16:53;;;;;;;7.43;2.33;;;;;;;;;;5056918;28;20020;-62
2021/09/22 02:19:20;;;;;;;9.77;2.70;;;;;;;;;;5053103;28;20045;-62
2021/09/22 02:21:46;;;;;;;8.60;2.50;;;;;;;;;;5057208;28;20065;-62
2021/09/22 02:24:12;;;;;;;7.88;2.00;;;;;;;;;;5065570;28;20032;-62
2021/09/22 02:26:38;;;;;;;6.15;2.22;;;;;;;;;;5059867;28;20111;-62
2021/09/22 02:29:04;;;;;;;8.73;2.92;;;;;;;;;;5053830;28;20033;-62
2021/09/22 02:31:30;;;;;;;5.97;2.25;;;;;;;;;;5071167;28;20032;-62
2021/09/22 02:33:56;;;;;;;13.57;2.35;;;;;;;;;;5063653;28;20043;-62
2021/09/22 02:36:22;;;;;;;7.95;2.08;;;;;;;;;;5052393;28;20051;-62
2021/09/22 02:38:48;;;;;;;5.85;2.13;;;;;;;;;;5054317;28;20135;-62
2021/09/22 02:41:14;;;;;;;11.90;2.17;;;;;;;;;;5068822;28;20029;-62
2021/09/22 02:43:40;;;;;;;4.15;1.98;;;;;;;;;;5062453;28;20083;-62
2021/09/22 02:46:06;;;;;;;7.47;2.22;;;;;;;;;;5072667;28;20032;-62
2021/09/22 02:48:32;;;;;;;9.98;3.25;;;;;;;;;;5055187;28;20032;-62
2021/09/22 02:50:58;;;;;;;7.15;2.00;;;;;;;;;;5070069;28;20111;-62
2021/09/22 02:53:24;;;;;;;14.77;3.30;;;;;;;;;;5053316;28;20509;-62
2021/09/22 02:55:50;;;;;;;7.55;2.20;;;;;;;;;;5047777;28;20029;-62
2021/09/22 02:58:16;;;;;;;5.15;2.28;;;;;;;;;;5054635;28;20166;-62
2021/09/22 03:00:42;;;;;;;9.30;3.25;;;;;;;;;;5051143;28;20025;-62
2021/09/22 03:03:08;;;;;;;8.95;2.60;;;;;;;;;;5061845;28;20063;-62
2021/09/22 03:05:34;;;;;;;10.43;2.10;;;;;;;;;;5063654;28;20112;-62
2021/09/22 03:08:00;;;;;;;7.28;1.63;;;;;;;;;;5039227;28;20041;-62
2021/09/22 03:10:26;;;;;;;7.25;2.90;;;;;;;;;;5056041;28;20029;-62
2021/09/22 03:12:53;;;;;;;6.57;2.47;;;;;;;;;;5064891;28;20111;-62
2021/09/22 03:15:19;;;;;;;4.82;1.20;;;;;;;;;;5070194;28;20112;-62
2021/09/22 03:17:45;;;;;;;6.25;2.28;;;;;;;;;;5044180;28;20373;-62
2021/09/22 03:20:11;;;;;;;9.98;1.98;;;;;;;;;;5046396;28;20101;-62
2021/09/22 03:22:37;;;;;;;8.40;2.00;;;;;;;;;;5073160;28;20025;-62
2021/09/22 03:25:04;;;;;;;9.23;2.17;;;;;;;;;;5045215;28;20108;-61
2021/09/22 03:27:30;;;;;;;4.45;2.00;;;;;;;;;;5044197;28;20036;-62
2021/09/22 03:29:56;;;;;;;8.40;1.67;;;;;;;;;;5047675;28;20098;-62
2021/09/22 03:32:22;;;;;;;10.32;2.08;;;;;;;;;;5037469;28;20593;-62
2021/09/22 03:34:48;;;;;;;10.70;1.63;;;;;;;;;;5056580;28;20107;-62
2021/09/22 03:37:14;;;;;;;14.70;2.58;;;;;;;;;;5064586;28;20641;-62
2021/09/22 03:39:40;;;;;;;6.85;2.28;;;;;;;;;;5050915;28;20034;-62
2021/09/22 03:42:06;;;;;;;10.38;2.38;;;;;;;;;;5072942;28;20025;-62
2021/09/22 03:44:32;;;;;;;4.10;2.00;;;;;;;;;;5054825;28;20048;-62
2021/09/22 03:46:58;;;;;;;5.35;1.63;;;;;;;;;;5057206;28;20075;-62
2021/09/22 03:49:24;;;;;;;16.20;2.63;;;;;;;;;;5049928;28;20033;-62
2021/09/22 03:51:50;;;;;;;4.53;1.77;;;;;;;;;;5065589;28;20028;-62
2021/09/22 03:54:16;;;;;;;9.23;2.65;;;;;;;;;;5054699;28;20419;-62
2021/09/22 03:56:42;;;;;;;10.00;1.60;;;;;;;;;;5022422;28;20436;-62
2021/09/22 03:59:09;;;;;;;6.88;2.33;;;;;;;;;;5058163;28;20055;-62
2021/09/22 04:01:34;;;;;;;8.43;2.03;;;;;;;;;;5047485;28;20060;-62
2021/09/22 04:04:00;;;;;;;9.63;2.17;;;;;;;;;;5062535;28;20516;-61
2021/09/22 04:06:26;;;;;;;10.63;2.20;;;;;;;;;;5049330;28;20174;-62
2021/09/22 04:08:52;;;;;;;7.97;2.33;;;;;;;;;;5061290;28;20032;-62
2021/09/22 04:11:19;;;;;;;10.13;2.17;;;;;;;;;;5060969;28;20020;-62
2021/09/22 04:13:45;;;;;;;8.52;2.40;;;;;;;;;;5055968;28;20455;-62
2021/09/22 04:16:11;;;;;;;7.97;2.03;;;;;;;;;;5049607;28;20564;-62
2021/09/22 04:18:37;;;;;;;7.22;1.88;;;;;;;;;;5056505;28;20584;-62
2021/09/22 04:21:03;;;;;;;5.60;1.88;;;;;;;;;;5040680;28;20096;-62
2021/09/22 04:23:29;;;;;;;5.53;1.85;;;;;;;;;;5065544;28;20922;-62
2021/09/22 04:25:55;;;;;;;8.90;2.65;;;;;;;;;;5047386;28;20104;-62
2021/09/22 04:28:22;;;;;;;8.18;2.28;;;;;;;;;;5046073;28;20761;-62
2021/09/22 04:30:48;;;;;;;8.07;2.13;;;;;;;;;;5042135;28;20028;-61
2021/09/22 04:33:14;;;;;;;6.47;2.30;;;;;;;;;;5061336;28;20087;-62
2021/09/22 04:35:40;;;;;;;7.43;2.20;;;;;;;;;;5043255;28;20033;-61
2021/09/22 04:38:06;;;;;;;6.88;1.95;;;;;;;;;;5046362;28;20028;-62
2021/09/22 04:40:32;;;;;;;10.43;2.53;;;;;;;;;;5041352;28;20487;-62
2021/09/22 04:42:59;;;;;;;9.35;2.90;;;;;;;;;;5062927;28;20462;-62
2021/09/22 04:45:25;;;;;;;8.05;1.95;;;;;;;;;;5041778;28;20112;-62
2021/09/22 04:47:52;;;;;;;7.95;2.35;;;;;;;;;;5043849;28;20045;-62
2021/09/22 04:50:19;;;;;;;10.48;2.40;;;;;;;;;;5042248;28;20056;-62
2021/09/22 04:52:45;;;;;;;10.60;1.83;;;;;;;;;;5047515;28;20059;-62
2021/09/22 04:55:11;;;;;;;10.07;2.30;;;;;;;;;;5034698;28;20075;-62
2021/09/22 04:57:39;;;;;;;13.05;2.20;;;;;;;;;;5056931;28;20044;-62
2021/09/22 05:00:05;;;;;;;10.15;3.05;;;;;;;;;;5053217;28;20025;-62
2021/09/22 05:02:31;;;;;;;5.00;2.08;;;;;;;;;;5044064;28;20086;-62
2021/09/22 05:04:57;;;;;;;10.82;2.08;;;;;;;;;;5047035;28;20627;-62
2021/09/22 05:07:23;;;;;;;5.30;2.13;;;;;;;;;;5046771;28;20025;-60
2021/09/22 05:09:49;;;;;;;9.15;1.77;;;;;;;;;;5055698;28;20718;-62
2021/09/22 05:12:15;;;;;;;10.00;1.90;;;;;;;;;;5038228;28;20025;-62
2021/09/22 05:14:41;;;;;;;8.90;2.08;;;;;;;;;;5050857;28;20024;-62
2021/09/22 05:17:07;;;;;;;7.15;2.50;;;;;;;;;;5052885;28;20025;-62
2021/09/22 05:19:33;;;;;;;8.45;2.45;;;;;;;;;;5060205;28;20106;-60
2021/09/22 05:21:59;;;;;;;11.13;2.00;;;;;;;;;;5060299;28;20021;-61
2021/09/22 05:24:25;;;;;;;13.93;3.20;;;;;;;;;;5052538;28;20083;-61
2021/09/22 05:26:52;;;;;;;8.63;2.88;;;;;;;;;;5042622;28;20033;-60
2021/09/22 05:29:18;;;;;;;5.93;1.60;;;;;;;;;;5051320;28;20031;-61
2021/09/22 05:31:44;;;;;;;4.65;1.60;;;;;;;;;;5061017;28;20407;-61
2021/09/22 05:34:10;;;;;;;11.43;2.72;;;;;;;;;;5063172;28;20112;-59
2021/09/22 05:36:36;;;;;;;11.23;2.63;;;;;;;;;;5067618;28;20029;-60
2021/09/22 05:39:03;;;;;;;9.57;2.10;;;;;;;;;;5057815;28;20028;-61
2021/09/22 05:41:29;;;;;;;11.15;3.00;;;;;;;;;;5068443;28;20448;-61
2021/09/22 05:43:55;;;;;;;6.80;2.28;;;;;;;;;;5072625;28;20032;-61
2021/09/22 05:46:21;;;;;;;11.63;1.98;;;;;;;;;;5066758;28;20017;-61
2021/09/22 05:48:47;;;;;;;9.85;2.85;;;;;;;;;;5064719;28;20499;-61
2021/09/22 05:51:13;;;;;;;9.45;2.17;;;;;;;;;;5072679;28;20100;-61
2021/09/22 05:53:40;;;;;;;8.88;3.03;;;;;;;;;;5066295;28;20033;-60
2021/09/22 05:56:06;;;;;;;11.23;3.17;;;;;;;;;;5064840;28;20376;-59
2021/09/22 05:58:32;;;;;;;14.82;2.63;;;;;;;;;;5051258;28;20106;-60
2021/09/22 06:00:59;;;;;;;8.98;2.55;;;;;;;;;;5047933;28;20022;-60
2021/09/22 06:03:25;;;;;;;8.23;1.60;;;;;;;;;;5050537;28;20021;-60
2021/09/22 06:05:51;;;;;;;15.23;2.30;;;;;;;;;;5052580;28;20511;-60
2021/09/22 06:08:17;;;;;;;9.70;2.90;;;;;;;;;;5056344;28;20112;-60
2021/09/22 06:10:44;;;;;;;9.35;2.35;;;;;;;;;;5053525;28;20469;-59
2021/09/22 06:13:10;;;;;;;9.02;2.53;;;;;;;;;;5048590;28;20033;-59
2021/09/22 06:15:37;;;;;;;5.18;1.55;;;;;;;;;;5050275;28;20064;-60
2021/09/22 06:18:03;;;;;;;7.68;1.60;;;;;;;;;;5052421;28;20055;-61
2021/09/22 06:20:29;;;;;;;12.20;3.33;;;;;;;;;;5042343;28;20152;-60
2021/09/22 06:22:55;;;;;;;10.48;1.83;;;;;;;;;;5049606;28;20036;-60
2021/09/22 06:25:22;;;;;;;5.53;2.03;;;;;;;;;;5046005;28;20575;-60
2021/09/22 06:27:48;;;;;;;12.77;3.08;;;;;;;;;;5052931;28;20080;-59
2021/09/22 06:30:14;;;;;;;12.88;2.60;;;;;;;;;;5051718;28;20857;-58
2021/09/22 06:32:40;;;;;;;12.18;2.22;;;;;;;;;;5042917;28;20120;-60
2021/09/22 06:35:07;;;;;;;10.32;2.88;;;;;;;;;;5060408;28;20057;-59
2021/09/22 06:37:33;;;;;;;8.43;2.35;;;;;;;;;;5048427;28;20037;-60
2021/09/22 06:39:59;;;;;;;11.73;2.15;;;;;;;;;;5066921;28;20078;-59
2021/09/22 06:42:25;;;;;;;16.10;2.17;;;;;;;;;;5063896;28;20028;-60
2021/09/22 06:44:51;;;;;;;10.23;2.60;;;;;;;;;;5057808;28;20450;-59
2021/09/22 06:47:18;;;;;;;6.85;1.70;;;;;;;;;;5053965;28;20043;-60
2021/09/22 06:49:44;;;;;;;8.63;1.80;;;;;;;;;;5047375;28;20028;-60
2021/09/22 06:52:10;;;;;;;8.77;2.25;;;;;;;;;;5057342;28;20370;-60
2021/09/22 06:54:36;;;;;;;9.02;2.03;;;;;;;;;;5035355;28;20029;-59
2021/09/22 06:57:02;;;;;;;9.65;2.42;;;;;;;;;;5063064;28;20029;-61
2021/09/22 06:59:28;;;;;;;7.97;2.28;;;;;;;;;;5046951;28;20385;-60
2021/09/22 07:01:54;;;;;;;9.48;2.45;;;;;;;;;;5028285;28;20031;-58
2021/09/22 07:04:20;;;;;;;7.97;1.65;;;;;;;;;;5067284;28;20020;-60
2021/09/22 07:06:46;;;;;;;6.18;2.05;;;;;;;;;;5057664;28;20174;-61
2021/09/22 07:09:12;;;;;;;7.15;2.13;;;;;;;;;;5039477;28;20071;-60
2021/09/22 07:11:38;;;;;;;5.57;1.65;;;;;;;;;;5051905;28;20107;-60
2021/09/22 07:14:04;;;;;;;10.02;2.03;;;;;;;;;;5053153;28;20527;-60
2021/09/22 07:16:31;;;;;;;8.27;2.00;;;;;;;;;;5050002;28;20029;-60
2021/09/22 07:18:57;;;;;;;7.45;2.08;;;;;;;;;;5057273;28;20032;-60
2021/09/22 07:21:23;;;;;;;11.38;2.47;;;;;;;;;;5056354;28;20033;-61
2021/09/22 07:23:50;;;;;;;6.63;1.80;;;;;;;;;;5054049;28;20103;-59
2021/09/22 07:26:16;;;;;;;6.88;1.35;;;;;;;;;;5055453;28;20024;-60
2021/09/22 07:28:42;;;;;;;11.73;1.65;;;;;;;;;;5059316;28;20115;-60
2021/09/22 07:31:08;;;;;;;11.80;2.20;;;;;;;;;;5046398;28;20037;-59
2021/09/22 07:33:34;;;;;;;7.85;2.88;;;;;;;;;;5061686;28;20021;-61
2021/09/22 07:36:01;;;;;;;7.13;2.85;;;;;;;;;;5042147;28;20028;-59
2021/09/22 07:38:27;;;;;;;11.05;1.95;;;;;;;;;;5055162;28;20128;-61
2021/09/22 07:40:53;;;;;;;5.15;1.60;;;;;;;;;;5053170;28;20036;-61
2021/09/22 07:43:19;;;;;;;13.20;2.30;;;;;;;;;;5054943;28;20096;-61
2021/09/22 07:45:45;;;;;;;10.82;2.25;;;;;;;;;;5053701;28;20100;-60
2021/09/22 07:48:12;;;;;;;10.07;2.45;;;;;;;;;;5053840;28;20036;-60
2021/09/22 07:50:38;;;;;;;10.43;2.92;;;;;;;;;;5058760;28;20507;-60
2021/09/22 07:53:04;;;;;;;15.30;2.63;;;;;;;;;;5030058;28;20104;-61
2021/09/22 07:55:31;;;;;;;9.00;2.42;;;;;;;;;;5070401;28;20365;-61
2021/09/22 07:57:57;;;;;;;7.00;1.60;;;;;;;;;;5060706;28;20029;-61
2021/09/22 08:00:23;;;;;;;6.43;1.67;;;;;;;;;;5058583;28;20051;-58
2021/09/22 08:02:50;;;;;;;8.73;1.77;;;;;;;;;;5060003;28;20090;-60
2021/09/22 08:05:16;;;;;;;10.50;1.88;;;;;;;;;;5059746;28;20047;-61
2021/09/22 08:07:42;;;;;;;13.25;1.80;;;;;;;;;;5065020;28;20158;-60
2021/09/22 08:10:09;;;;;;;7.70;2.00;;;;;;;;;;5067717;28;20029;-60
2021/09/22 08:12:35;;;;;;;12.45;1.98;;;;;;;;;;5036937;28;20127;-60
2021/09/22 08:15:01;;;;;;;9.77;2.10;;;;;;;;;;5054012;28;20108;-60
2021/09/22 08:17:27;;;;;;;9.48;1.77;;;;;;;;;;5052166;28;20132;-60
2021/09/22 08:19:53;;;;;;;8.57;1.70;;;;;;;;;;5051677;28;20052;-61
2021/09/22 08:22:19;;;;;;;11.55;1.67;;;;;;;;;;5052302;28;20037;-61
2021/09/22 08:24:45;;;;;;;8.77;2.47;;;;;;;;;;5058779;28;20025;-60
2021/09/22 08:27:13;;;;;;;7.70;2.70;;;;;;;;;;5040646;28;20492;-61
2021/09/22 08:29:39;;;;;;;9.55;1.95;;;;;;;;;;5054589;28;20168;-61
2021/09/22 08:32:05;;;;;;;6.22;1.83;;;;;;;;;;5049867;28;20453;-60
2021/09/22 08:34:31;;;;;;;11.90;2.88;;;;;;;;;;5057861;28;20029;-61
2021/09/22 08:36:57;;;;;;;5.40;1.42;;;;;;;;;;5051739;28;20219;-61
2021/09/22 08:39:23;;;;;;;10.13;1.70;;;;;;;;;;5049000;28;20464;-61
2021/09/22 08:41:49;;;;;;;10.68;2.05;;;;;;;;;;5038773;28;20020;-61
2021/09/22 08:44:17;;;;;;;13.60;2.38;;;;;;;;;;5056429;28;20525;-61
2021/09/22 08:46:44;;;;;;;8.45;1.45;;;;;;;;;;5050689;28;20583;-60
2021/09/22 08:49:10;;;;;;;9.27;2.55;;;;;;;;;;5054884;28;20078;-60
2021/09/22 08:51:37;;;;;;;8.88;1.98;;;;;;;;;;5054349;28;20107;-61
2021/09/22 08:54:03;;;;;;;13.07;2.33;;;;;;;;;;5052701;28;20402;-61
2021/09/22 08:56:29;;;;;;;7.88;1.63;;;;;;;;;;5063855;28;20063;-61
2021/09/22 08:58:55;;;;;;;9.55;1.80;;;;;;;;;;5064445;28;20031;-61
2021/09/22 09:01:22;;;;;;;11.73;2.55;;;;;;;;;;5059055;28;20032;-58
2021/09/22 09:03:49;;;;;;;7.95;1.42;;;;;;;;;;5050818;28;20083;-61
2021/09/22 09:06:19;;;;;;;7.18;2.13;;;;;;;;;;5055259;28;20453;-60
2021/09/22 09:08:45;;;;;;;7.25;2.08;;;;;;;;;;5047339;28;20342;-60
2021/09/22 09:11:11;;;;;;;9.02;1.60;;;;;;;;;;5051569;28;20040;-60
2021/09/22 09:13:51;;;;;;;9.27;1.95;;;;;;;;;;5053425;28;20124;-61
2021/09/22 09:16:22;;;;;;;15.13;2.10;;;;;;;;;;5051445;28;20037;-61
2021/09/22 09:18:54;;;;;;;14.23;1.80;;;;;;;;;;5053242;28;20411;-61
2021/09/22 09:21:21;;;;;;;17.08;2.53;;;;;;;;;;5052467;28;20041;-61
2021/09/22 09:23:51;;;;;;;12.20;1.83;;;;;;;;;;5048394;28;20487;-61
2021/09/22 09:26:19;;;;;;;8.75;1.75;;;;;;;;;;5050338;28;20484;-61
2021/09/22 09:28:49;;;;;;;4.95;1.85;;;;;;;;;;5047490;28;20544;-61
2021/09/22 09:31:15;;;;;;;6.70;1.90;;;;;;;;;;5053940;28;20044;-59
2021/09/22 09:33:42;;;;;;;10.63;1.35;;;;;;;;;;5044022;28;20059;-59
2021/09/22 09:36:19;;;;;;;9.32;2.28;;;;;;;;;;5042488;28;20032;-61
2021/09/22 09:38:50;;;;;;;9.60;2.17;;;;;;;;;;5069666;28;20488;-60
2021/09/22 09:41:23;;;;;;;7.97;1.48;;;;;;;;;;5041761;28;20025;-60
2021/09/22 09:43:49;;;;;;;9.50;1.98;;;;;;;;;;5060862;28;20032;-61
2021/09/22 09:46:22;;;;;;;10.23;1.75;;;;;;;;;;5068889;28;20587;-61
2021/09/22 09:48:56;;;;;;;10.38;1.63;;;;;;;;;;5067860;28;20052;-61
2021/09/22 09:51:22;;;;;;;8.70;2.15;;;;;;;;;;5067455;28;20025;-60
2021/09/22 09:53:48;;;;;;;8.65;1.80;;;;;;;;;;5062497;28;20025;-60
2021/09/22 09:56:20;;;;;;;6.53;1.70;;;;;;;;;;5060232;28;20459;-61
2021/09/22 09:58:47;;;;;;;8.52;1.75;;;;;;;;;;5037689;28;20033;-61
2021/09/22 10:01:13;;;;;;;6.70;1.63;;;;;;;;;;5050454;28;20431;-61
2021/09/22 10:03:39;;;;;;;8.32;2.45;;;;;;;;;;5063304;28;20100;-61
2021/09/22 10:06:07;;;;;;;5.25;1.45;;;;;;;;;;5060736;28;20028;-60
2021/09/22 10:08:33;;;;;;;10.30;2.22;;;;;;;;;;5049596;28;20116;-59
2021/09/22 10:11:03;;;;;;;7.30;1.95;;;;;;;;;;5051006;28;20111;-60
2021/09/22 10:13:31;;;;;;;12.85;2.40;;;;;;;;;;5026079;28;20026;-60
2021/09/22 10:15:57;;;;;;;7.72;1.73;;;;;;;;;;5041585;28;20492;-60
2021/09/22 10:18:23;;;;;;;9.18;1.65;;;;;;;;;;5043869;28;20043;-60
2021/09/22 10:20:50;;;;;;;6.55;1.50;;;;;;;;;;5056129;28;20124;-60
2021/09/22 10:23:17;;;;;;;12.52;2.15;;;;;;;;;;5056746;28;20040;-59
2021/09/22 10:25:43;;;;;;;9.10;1.85;;;;;;;;;;5034017;28;20037;-59
2021/09/22 10:28:09;;;;;;;8.73;2.33;;;;;;;;;;5066321;28;20078;-59
2021/09/22 10:30:39;;;;;;;6.22;1.92;;;;;;;;;;5063261;28;20024;-60
2021/09/22 10:33:06;;;;;;;10.73;1.60;;;;;;;;;;5049482;28;20033;-59
2021/09/22 10:35:35;;;;;;;9.93;1.52;;;;;;;;;;5046554;28;20192;-60
2021/09/22 10:38:21;;;;;;;7.90;1.35;;;;;;;;;;5059989;28;20029;-60
2021/09/22 10:40:51;;;;;;;9.52;1.83;;;;;;;;;;5053884;28;20032;-61
2021/09/22 10:43:17;;;;;;;9.93;2.03;;;;;;;;;;5059716;28;20021;-61
2021/09/22 10:45:44;;;;;;;10.25;2.03;;;;;;;;;;5032596;28;20083;-60
2021/09/22 10:48:20;;;;;;;8.50;1.63;;;;;;;;;;5052452;28;20047;-59
2021/09/22 10:50:46;;;;;;;7.15;1.50;;;;;;;;;;5057132;28;20021;-60
2021/09/22 10:53:45;;;;;;;6.05;1.48;;;;;;;;;;5053613;28;20109;-59
2021/09/22 10:56:13;;;;;;;6.15;1.58;;;;;;;;;;4987155;28;20040;-59
2021/09/22 10:58:55;;;;;;;9.00;1.92;;;;;;;;;;5063995;28;20444;-60
2021/09/22 11:01:33;;;;;;;11.27;2.08;;;;;;;;;;5059954;28;20457;-61
2021/09/22 11:04:05;;;;;;;8.23;1.33;;;;;;;;;;5065039;28;20095;-60
2021/09/22 11:06:43;;;;;;;5.90;1.35;;;;;;;;;;5052856;28;20017;-60
2021/09/22 11:09:21;;;;;;;6.32;1.80;;;;;;;;;;5053540;28;20554;-60
2021/09/22 11:11:56;;;;;;;10.52;1.80;;;;;;;;;;5053623;28;20032;-61
2021/09/22 11:14:32;;;;;;;7.78;2.08;;;;;;;;;;5049830;28;20019;-60
2021/09/22 11:17:07;;;;;;;5.93;1.65;;;;;;;;;;5048031;28;20424;-61
2021/09/22 11:19:33;;;;;;;10.13;1.85;;;;;;;;;;5043817;28;21102;-61
2021/09/22 11:22:00;;;;;;;11.23;2.20;;;;;;;;;;5045855;28;20665;-61
2021/09/22 11:24:28;;;;;;;7.38;2.03;;;;;;;;;;5031566;28;20469;-61
2021/09/22 11:26:56;;;;;;;5.60;1.20;;;;;;;;;;5043863;28;20394;-60
2021/09/22 11:29:40;;;;;;;6.32;1.33;;;;;;;;;;5046710;28;20028;-62
2021/09/22 11:32:08;;;;;;;4.75;1.48;;;;;;;;;;5045337;28;20112;-61
2021/09/22 11:34:37;;;;;;;5.15;1.20;;;;;;;;;;5042911;28;20029;-61
2021/09/22 11:37:08;;;;;;;10.60;2.00;;;;;;;;;;5053888;28;20103;-61
2021/09/22 11:39:34;;;;;;;4.30;0.90;;;;;;;;;;5052241;28;20031;-60
2021/09/22 11:42:00;;;;;;;5.75;1.00;;;;;;;;;;5063533;28;20095;-60
2021/09/22 11:44:28;;;;;;;5.63;1.35;;;;;;;;;;5053067;28;20545;-60
2021/09/22 11:46:55;;;;;;;4.75;1.48;;;;;;;;;;5041087;28;20033;-60
2021/09/22 11:49:21;;;;;;;8.27;1.48;;;;;;;;;;5037590;28;20104;-60
2021/09/22 11:52:03;;;;;;;8.13;1.48;;;;;;;;;;5047361;28;20116;-60
2021/09/22 11:54:29;;;;;;;11.73;1.58;;;;;;;;;;5035748;28;20563;-60
2021/09/22 11:57:06;;;;;;;6.32;1.00;;;;;;;;;;5050184;28;20078;-59
2021/09/22 11:59:33;;;;;;;7.95;1.23;;;;;;;;;;5044005;28;20509;-60
2021/09/22 12:01:59;;;;;;;4.35;1.30;;;;;;;;;;5049579;28;20017;-60
2021/09/22 12:04:30;;;;;;;14.27;1.60;;;;;;;;;;5040769;28;20021;-60
2021/09/22 12:06:56;;;;;;;3.55;1.05;;;;;;;;;;5047762;28;20037;-60
2021/09/22 12:09:22;;;;;;;6.00;0.80;;;;;;;;;;5037448;28;20121;-61
2021/09/22 12:12:04;;;;;;;11.75;0.95;;;;;;;;;;5046455;28;20029;-59
2021/09/22 12:14:30;;;;;;;5.97;0.95;;;;;;;;;;5041591;28;20036;-59
2021/09/22 12:17:13;;;;;;;5.88;1.10;;;;;;;;;;5049906;28;20554;-58
2021/09/22 12:19:39;;;;;;;4.47;0.80;;;;;;;;;;5048223;28;20072;-60
2021/09/22 12:22:06;;;;;;;10.40;1.10;;;;;;;;;;5053179;28;20032;-59
2021/09/22 12:24:33;;;;;;;5.22;1.30;;;;;;;;;;5037337;28;20025;-58
2021/09/22 12:27:00;;;;;;;6.90;1.38;;;;;;;;;;5045993;28;20457;-60
2021/09/22 12:29:26;;;;;;;3.65;0.90;;;;;;;;;;5044452;28;20033;-58
2021/09/22 12:31:53;;;;;;;4.55;1.02;;;;;;;;;;5047497;28;20460;-58
2021/09/22 12:34:26;;;;;;;3.80;1.00;;;;;;;;;;5041905;28;20079;-57
2021/09/22 12:36:52;;;;;;;;;;;;;;;;;;5042168;28;20036;-58
2021/09/22 12:39:19;;;;;;;7.15;1.10;;;;;;;;;;5034325;28;19936;-57
2021/09/22 12:42:05;;;;;;;5.50;1.10;;;;;;;;;;5040063;28;20623;-57
2021/09/22 12:44:51;;;;;;;4.10;1.15;;;;;;;;;;5041868;28;20025;-58
2021/09/22 12:47:17;;;;;;;6.95;1.23;;;;;;;;;;5051079;28;20025;-58
2021/09/22 12:49:43;;;;;;;4.15;0.95;;;;;;;;;;5052438;28;20024;-55
2021/09/22 12:52:20;;;;;;;7.15;1.25;;;;;;;;;;5052501;28;20051;-58
2021/09/22 12:54:46;;;;;;;5.88;1.25;;;;;;;;;;5055518;28;20028;-58
2021/09/22 12:57:12;;;;;;;10.55;1.38;;;;;;;;;;5036447;28;20219;-57
2021/09/22 12:59:38;;;;;;;7.03;0.98;;;;;;;;;;5061285;28;20502;-58
2021/09/22 13:02:04;;;;;;;3.08;0.88;;;;;;;;;;5056913;28;20028;-57
2021/09/22 13:04:31;;;;;;;4.20;1.13;;;;;;;;;;5042886;28;20028;-59
2021/09/22 13:06:59;;;;;;;7.53;1.77;;;;;;;;;;5050809;28;20025;-59
2021/09/22 13:09:32;;;;;;;8.60;1.25;;;;;;;;;;5048047;28;20116;-59
2021/09/22 13:11:58;;;;;;;4.63;1.08;;;;;;;;;;5042181;28;20070;-59
2021/09/22 13:14:24;;;;;;;6.55;1.48;;;;;;;;;;5051667;28;20036;-59
2021/09/22 13:16:52;;;;;;;3.95;0.85;;;;;;;;;;5046514;28;20025;-59
2021/09/22 13:19:19;;;;;;;8.35;1.17;;;;;;;;;;5052031;28;20049;-58
2021/09/22 13:21:46;;;;;;;4.20;0.95;;;;;;;;;;5049833;28;20545;-60
2021/09/22 13:24:13;;;;;;;6.43;1.30;;;;;;;;;;5045835;28;20520;-59
2021/09/22 13:26:41;;;;;;;6.57;1.55;;;;;;;;;;5045827;28;20370;-58
2021/09/22 13:29:08;;;;;;;4.32;0.90;;;;;;;;;;5047239;28;20033;-59
2021/09/22 13:31:36;;;;;;;5.45;1.17;;;;;;;;;;5045556;28;20022;-60
2021/09/22 13:34:03;;;;;;;8.55;1.48;;;;;;;;;;5045365;28;20033;-59
2021/09/22 13:36:29;;;;;;;11.13;1.27;;;;;;;;;;5035481;28;20021;-59
2021/09/22 13:38:56;;;;;;;3.28;0.57;;;;;;;;;;5051725;28;20025;-57
2021/09/22 13:41:22;;;;;;;4.75;1.13;;;;;;;;;;5047190;28;20466;-57
2021/09/22 13:43:50;;;;;;;3.70;0.80;;;;;;;;;;5041623;28;20112;-58
2021/09/22 13:46:17;;;;;;;5.28;1.42;;;;;;;;;;5046935;28;20029;-57
2021/09/22 13:48:43;;;;;;;8.23;0.88;;;;;;;;;;5042037;28;20445;-56
2021/09/22 13:51:10;;;;;;;6.95;1.40;;;;;;;;;;5041800;28;20033;-58
2021/09/22 13:53:36;;;;;;;7.47;1.02;;;;;;;;;;5048598;28;20038;-56
2021/09/22 13:56:02;;;;;;;5.93;0.85;;;;;;;;;;5055311;28;20039;-58
2021/09/22 13:58:28;;;;;;;4.80;0.95;;;;;;;;;;5044504;28;20037;-57
2021/09/22 14:00:56;;;;;;;4.50;0.73;;;;;;;;;;5056844;28;20028;-58
2021/09/22 14:03:22;;;;;;;4.65;1.35;;;;;;;;;;5032198;28;20127;-55
2021/09/22 14:05:48;;;;;;;4.40;0.95;;;;;;;;;;5045704;28;20147;-58
2021/09/22 14:08:15;;;;;;;4.93;1.00;;;;;;;;;;5047511;28;20439;-58
2021/09/22 14:10:42;;;;;;;10.20;1.52;;;;;;;;;;5052366;28;20040;-58
2021/09/22 14:13:08;;;;;;;5.18;0.90;;;;;;;;;;5045944;28;20028;-57
2021/09/22 14:15:36;;;;;;;4.60;0.90;;;;;;;;;;5047929;28;20104;-56
2021/09/22 14:18:02;;;;;;;4.43;1.08;;;;;;;;;;5043983;28;20434;-57
2021/09/22 14:20:28;;;;;;;4.65;1.15;;;;;;;;;;5051976;28;20041;-57
2021/09/22 14:22:54;;;;;;;7.75;1.08;;;;;;;;;;5047722;28;20028;-57
2021/09/22 14:25:21;;;;;;;7.00;1.23;;;;;;;;;;5052985;28;20080;-58
2021/09/22 14:27:48;;;;;;;5.63;1.42;;;;;;;;;;5040965;28;20021;-58
2021/09/22 14:30:16;;;;;;;4.75;1.02;;;;;;;;;;5062398;28;20032;-56
2021/09/22 14:32:42;;;;;;;4.72;1.08;;;;;;;;;;5060566;28;20384;-57
2021/09/22 14:35:10;;;;;;;4.05;1.08;;;;;;;;;;5059756;28;20455;-58
2021/09/22 14:37:36;;;;;;;4.10;1.02;;;;;;;;;;5061725;28;20383;-57
2021/09/22 14:40:02;;;;;;;3.58;1.00;;;;;;;;;;5051866;28;20061;-57
2021/09/22 14:42:28;;;;;;;3.60;1.00;;;;;;;;;;5052453;28;20662;-57